createdAt,value
2023-07-27T00:01:19.589Z,18.60
2023-07-27T00:06:24.204Z,18.60
2023-07-27T00:11:28.438Z,18.50
2023-07-27T00:16:34.941Z,18.50
2023-07-27T00:21:39.948Z,18.40
2023-07-27T00:26:46.665Z,18.40
2023-07-27T00:31:53.021Z,18.30
2023-07-27T00:36:57.781Z,18.20
2023-07-27T00:42:03.006Z,18.20
2023-07-27T00:47:08.601Z,18.10
2023-07-27T00:52:12.184Z,18.10
2023-07-27T00:57:15.815Z,18.10
2023-07-27T01:02:21.123Z,18.10
2023-07-27T01:07:24.563Z,18.00
2023-07-27T01:12:29.737Z,17.90
2023-07-27T01:17:38.934Z,17.90
2023-07-27T01:22:53.513Z,17.80
2023-07-27T01:28:03.807Z,17.80
2023-07-27T01:33:12.341Z,17.70
2023-07-27T01:38:17.932Z,17.70
2023-07-27T01:43:21.869Z,17.70
2023-07-27T01:48:27.511Z,17.60
2023-07-27T01:53:32.530Z,17.60
2023-07-27T01:58:36.804Z,17.50
2023-07-27T02:03:42.847Z,17.50
2023-07-27T02:08:47.131Z,17.50
2023-07-27T02:14:01.290Z,17.50
2023-07-27T02:19:07.239Z,17.40
2023-07-27T02:24:10.648Z,17.40
2023-07-27T02:29:14.055Z,17.30
2023-07-27T02:34:18.730Z,17.30
2023-07-27T02:39:22.188Z,17.30
2023-07-27T02:44:25.515Z,17.30
2023-07-27T02:49:30.519Z,17.30
2023-07-27T02:54:33.868Z,17.20
2023-07-27T02:59:37.223Z,17.20
2023-07-27T03:04:42.148Z,17.20
2023-07-27T03:09:45.501Z,17.20
2023-07-27T03:14:48.937Z,17.20
2023-07-27T03:19:53.924Z,17.20
2023-07-27T03:24:59.625Z,17.20
2023-07-27T03:30:03.140Z,17.20
2023-07-27T03:35:08.443Z,17.20
2023-07-27T03:40:12.100Z,17.10
2023-07-27T03:45:15.765Z,17.10
2023-07-27T03:50:20.625Z,17.20
2023-07-27T03:55:24.257Z,17.10
2023-07-27T04:00:27.743Z,17.10
2023-07-27T04:05:32.851Z,17.10
2023-07-27T04:10:36.182Z,17.10
2023-07-27T04:15:40.297Z,17.10
2023-07-27T04:20:45.918Z,17.10
2023-07-27T04:25:49.413Z,17.10
2023-07-27T04:30:52.881Z,17.10
2023-07-27T04:36:02.276Z,17.10
2023-07-27T04:41:05.644Z,17.10
2023-07-27T04:46:08.980Z,17.20
2023-07-27T04:51:15.054Z,17.20
2023-07-27T04:56:18.428Z,17.10
2023-07-27T05:01:21.802Z,17.10
2023-07-27T05:06:27.796Z,17.10
2023-07-27T05:11:31.265Z,17.20
2023-07-27T05:16:35.119Z,17.10
2023-07-27T05:21:40.651Z,17.20
2023-07-27T05:26:44.171Z,17.20
2023-07-27T05:31:48.913Z,17.20
2023-07-27T05:36:53.673Z,17.30
2023-07-27T05:41:57.902Z,17.40
2023-07-27T05:47:01.265Z,17.50
2023-07-27T05:52:06.557Z,17.50
2023-07-27T05:57:10.094Z,17.60
2023-07-27T06:02:13.448Z,17.70
2023-07-27T06:07:18.212Z,17.70
2023-07-27T06:12:21.596Z,17.80
2023-07-27T06:17:26.975Z,17.80
2023-07-27T06:22:31.794Z,17.90
2023-07-27T06:27:35.190Z,17.90
2023-07-27T06:32:38.561Z,18.00
2023-07-27T06:37:43.878Z,18.00
2023-07-27T06:42:47.241Z,18.10
2023-07-27T06:47:50.973Z,18.10
2023-07-27T06:52:56.886Z,18.20
2023-07-27T06:58:00.222Z,18.20
2023-07-27T07:03:03.717Z,18.30
2023-07-27T07:08:08.650Z,18.30
2023-07-27T07:13:11.966Z,18.30
2023-07-27T07:18:15.241Z,18.40
2023-07-27T07:23:20.171Z,18.40
2023-07-27T07:28:24.598Z,18.40
2023-07-27T07:33:29.193Z,18.40
2023-07-27T07:38:33.901Z,18.50
2023-07-27T07:43:37.389Z,18.50
2023-07-27T07:48:40.938Z,18.60
2023-07-27T07:53:45.682Z,18.60
2023-07-27T07:58:48.988Z,18.70
2023-07-27T08:03:53.084Z,18.70
2023-07-27T08:08:58.018Z,18.80
2023-07-27T08:14:03.470Z,18.90
2023-07-27T08:19:06.842Z,18.90
2023-07-27T08:24:12.006Z,19.00
2023-07-27T08:29:15.358Z,19.10
2023-07-27T08:34:18.653Z,19.20
2023-07-27T08:39:23.365Z,19.20
2023-07-27T08:44:27.184Z,19.30
2023-07-27T08:49:30.788Z,19.30
2023-07-27T08:54:37.666Z,19.40
2023-07-27T08:59:41.711Z,19.50
2023-07-27T09:04:45.099Z,19.50
2023-07-27T09:09:53.322Z,19.60
2023-07-27T09:14:56.622Z,19.70
2023-07-27T09:20:00.942Z,19.70
2023-07-27T09:25:06.709Z,19.80
2023-07-27T09:30:10.238Z,19.80
2023-07-27T09:35:16.896Z,19.90
2023-07-27T09:40:22.657Z,19.90
2023-07-27T09:45:26.087Z,20.00
2023-07-27T09:50:30.305Z,20.10
2023-07-27T09:55:35.384Z,20.20
2023-07-27T10:00:38.822Z,20.20
2023-07-27T10:05:42.839Z,20.30
2023-07-27T10:10:54.247Z,20.40
2023-07-27T10:15:58.846Z,20.50
2023-07-27T10:21:17.060Z,20.60
2023-07-27T10:26:21.839Z,20.70
2023-07-27T10:31:25.889Z,20.70
2023-07-27T10:36:51.127Z,20.90
2023-07-27T10:42:03.510Z,20.90
2023-07-27T10:47:08.801Z,21.00
2023-07-27T10:52:15.555Z,21.10
2023-07-27T10:57:20.685Z,21.20
2023-07-27T11:02:24.980Z,21.30
2023-07-27T11:07:29.179Z,21.40
2023-07-27T11:12:33.907Z,21.50
2023-07-27T11:17:37.255Z,21.60
2023-07-27T11:22:40.657Z,21.70
2023-07-27T11:27:49.383Z,21.80
2023-07-27T11:32:59.457Z,21.90
2023-07-27T11:38:03.012Z,21.90
2023-07-27T11:43:07.743Z,22.10
2023-07-27T11:48:11.627Z,22.20
2023-07-27T11:53:29.530Z,22.30
2023-07-27T11:58:40.280Z,22.40
2023-07-27T12:03:47.040Z,22.50
2023-07-27T12:08:51.027Z,22.60
2023-07-27T12:13:59.866Z,22.60
2023-07-27T12:19:03.894Z,22.80
2023-07-27T12:34:25.371Z,23.00
2023-07-27T12:39:29.554Z,23.00
2023-07-27T12:44:34.297Z,23.10
2023-07-27T12:49:37.636Z,23.20
2023-07-27T12:54:40.941Z,23.30
2023-07-27T12:59:45.761Z,23.50
2023-07-27T13:04:49.114Z,23.60
2023-07-27T13:09:52.448Z,23.80
2023-07-27T13:14:57.106Z,23.90
2023-07-27T13:20:00.463Z,24.10
2023-07-27T13:25:03.979Z,24.10
2023-07-27T13:30:09.621Z,24.10
2023-07-27T13:35:13.023Z,24.00
2023-07-27T13:40:16.414Z,24.00
2023-07-27T13:45:21.127Z,23.90
2023-07-27T13:50:24.526Z,23.90
2023-07-27T13:55:27.832Z,23.90
2023-07-27T14:00:33.036Z,23.90
2023-07-27T14:05:36.811Z,24.00
2023-07-27T14:10:40.619Z,24.00
2023-07-27T14:15:45.413Z,24.10
2023-07-27T14:20:49.339Z,24.00
2023-07-27T14:25:52.842Z,24.00
2023-07-27T14:31:12.480Z,24.00
2023-07-27T14:36:16.774Z,24.00
2023-07-27T14:41:20.065Z,24.00
2023-07-27T14:46:25.320Z,24.00
2023-07-27T14:51:28.861Z,24.10
2023-07-27T14:56:34.131Z,24.10
2023-07-27T15:01:50.794Z,24.10
2023-07-27T15:06:54.785Z,24.10
2023-07-27T15:11:58.062Z,24.10
2023-07-27T15:17:02.724Z,24.00
2023-07-27T15:22:06.652Z,24.10
2023-07-27T15:27:10.820Z,24.10
2023-07-27T15:32:15.606Z,24.10
2023-07-27T15:37:18.954Z,24.10
2023-07-27T15:42:22.949Z,24.10
2023-07-27T15:47:27.952Z,24.10
2023-07-27T15:52:31.821Z,24.00
2023-07-27T15:57:35.165Z,24.00
2023-07-27T16:02:40.937Z,24.00
2023-07-27T16:07:44.322Z,24.00
2023-07-27T16:12:47.590Z,24.00
2023-07-27T16:17:52.349Z,24.00
2023-07-27T16:22:55.761Z,24.00
2023-07-27T16:27:59.199Z,24.00
2023-07-27T16:33:04.046Z,24.00
2023-07-27T16:38:07.395Z,23.90
2023-07-27T16:43:10.692Z,23.90
2023-07-27T16:48:17.171Z,23.80
2023-07-27T16:53:20.508Z,23.80
2023-07-27T16:58:24.016Z,23.80
2023-07-27T17:03:29.445Z,23.80
2023-07-27T17:08:32.781Z,23.80
2023-07-27T17:13:36.034Z,23.70
2023-07-27T17:18:41.800Z,23.70
2023-07-27T17:23:45.240Z,23.60
2023-07-27T17:28:48.703Z,23.60
2023-07-27T17:33:53.333Z,23.60
2023-07-27T17:38:56.601Z,23.50
2023-07-27T17:43:59.963Z,23.50
2023-07-27T17:49:04.843Z,23.50
2023-07-27T17:54:08.743Z,23.40
2023-07-27T17:59:12.394Z,23.40
2023-07-27T18:04:17.253Z,23.40
2023-07-27T18:09:20.887Z,23.40
2023-07-27T18:14:24.522Z,23.40
2023-07-27T18:19:29.591Z,23.30
2023-07-27T18:24:35.093Z,23.30
2023-07-27T18:29:38.649Z,23.20
2023-07-27T18:34:43.429Z,23.20
2023-07-27T18:39:49.115Z,23.20
2023-07-27T18:44:52.653Z,23.10
2023-07-27T18:49:57.397Z,23.10
2023-07-27T18:55:01.487Z,23.00
2023-07-27T19:00:05.799Z,23.00
2023-07-27T19:05:10.496Z,22.90
2023-07-27T19:10:13.813Z,22.90
2023-07-27T19:15:17.290Z,22.80
2023-07-27T19:20:23.010Z,22.80
2023-07-27T19:25:26.340Z,22.70
2023-07-27T19:30:30.339Z,22.70
2023-07-27T19:35:35.286Z,22.60
2023-07-27T19:40:38.656Z,22.60
2023-07-27T19:45:42.094Z,22.50
2023-07-27T19:50:52.288Z,22.40
2023-07-27T19:56:01.750Z,22.30
2023-07-27T20:01:05.605Z,22.20
2023-07-27T20:06:10.504Z,22.10
2023-07-27T20:11:16.071Z,22.00
2023-07-27T20:16:19.939Z,21.90
2023-07-27T20:21:24.782Z,21.90
2023-07-27T20:26:28.166Z,21.90
2023-07-27T20:31:31.606Z,21.80
2023-07-27T20:36:38.468Z,21.80
2023-07-27T20:41:41.819Z,21.80
2023-07-27T20:46:45.194Z,21.70
2023-07-27T20:51:50.000Z,21.70
2023-07-27T20:56:53.412Z,21.60
2023-07-27T21:01:56.801Z,21.60
2023-07-27T21:07:01.675Z,21.50
2023-07-27T21:12:06.059Z,21.40
2023-07-27T21:17:09.414Z,21.40
2023-07-27T21:22:14.543Z,21.30
2023-07-27T21:27:17.885Z,21.20
2023-07-27T21:32:21.205Z,21.20
2023-07-27T21:37:25.861Z,21.10
2023-07-27T21:42:29.237Z,21.00
2023-07-27T21:47:32.782Z,21.00
2023-07-27T21:52:37.556Z,20.90
2023-07-27T21:57:40.931Z,20.80
2023-07-27T22:02:44.407Z,20.70
2023-07-27T22:07:49.675Z,20.60
2023-07-27T22:12:54.369Z,20.60
2023-07-27T22:17:58.184Z,20.50
2023-07-27T22:23:02.941Z,20.40
2023-07-27T22:28:06.585Z,20.30
2023-07-27T22:33:09.973Z,20.20
2023-07-27T22:38:15.045Z,20.10
2023-07-27T22:43:18.651Z,20.10
2023-07-27T22:48:22.308Z,20.00
2023-07-27T22:53:27.186Z,20.00
2023-07-27T22:58:30.585Z,19.90
2023-07-27T23:03:33.884Z,19.90
2023-07-27T23:08:38.831Z,19.90
2023-07-27T23:13:42.190Z,19.80
2023-07-27T23:18:45.487Z,19.80
2023-07-27T23:23:50.231Z,19.70
2023-07-27T23:28:53.570Z,19.70
2023-07-27T23:33:57.500Z,19.70
2023-07-27T23:39:02.199Z,19.60
2023-07-27T23:44:05.858Z,19.60
2023-07-27T23:49:09.153Z,19.60
2023-07-27T23:54:14.216Z,19.60
2023-07-27T23:59:17.526Z,19.50
